Avondale, Colorado
Current Conditions -  °F | °C
As of 8:53 AM on Friday 28 Nov 2014 (Local Time) from KPUB Reporting Station
Clear Clear  
Wind Chill: 41°   Ceiling: Unl
Heat Index: 41°   Visibility: 10mi
Dew Point: 24°   Wind: 3mph
Humidity: 51%   Direction: 250°WSW
Pressure: 30"   Gusts: NA
Location:  38.24°N, 104.35°W
Report Text: KPUB 281553Z 25003KT 10SM CLR 05/M04 A3000 RMK AO2 SLP144 T00501044
Loading
Personal Weather Stations






























Interactive Weather Map New forecast layout! Learn more

10-Day Weather Forecast

Advertisements
Track Severe Weather on mobile